Portada
METAR-TAF:

METAR-TAF

Aeroports :

Ankara-Esenboğa, Turquia

latitud: 40-07N, longitud: 032-59E, altitud: 953 m

Observació

L'informe es va fer fa 46 minuts, a les 06:20 UTC
Vent 16 kt del Nord/Nord-Est
Temperatura 12°C
Humitat 47%
Pressió 1022 hPa
Visibilitat 10 km o més
Núvols disperses a una alçada de 4000 ft

METAR: LTAC 210620Z 02016KT 9999 SCT040 12/01 Q1022 NOSIG RMK RWY21L 35016KT RWY03L 02014KT RWY21R 01014KT

Hora: 10:06 (07:06 UTC)

Pronòstic

L'informe es va fer fa 2 hores i 26 minuts, a les 04:40 UTC
Pronòstic vàlid del 21 a les 06 UTC al 22 a les 06 UTC
Vent 12 kt del Nord
Visibilitat 10 km o més
Núvols disperses a una alçada de 4000 ft
Evolucionant progressivament
l' 21 a les 18 UTC al 21 a les 20 UTC
Vent 2 kt amb direcció variable
Visibilitat 10 km o més
sense núvols per sota de 1500 mi sense presència de cumulonimbus.

TAF: LTAC 210440Z 2106/2206 01012KT 9999 SCT040 BECMG 2118/2120 VRB02KT CAVOK

Observacions i pronòstics meteorològics de més de 4000 aeroports (METAR i TAF).

Les estacions disponibles són els punts grocs i vermells al mapa.

Posi el ratolí al punt desitjat per veure el nom de l'estació.

Feu clic per veure les observacions i els pronòstics meteorològics.

Per canviar el mapa: feu clic els botons verds amb una creu de color negre per apropar; al botó verd amb un guió per allunyar la imatge; o en les fletxes verdes per a mapes adjacents.


METAR-TAF: